x

Yucatan Basin - 120 Nm Ese Of Cozumel, Mx (42056) Wave Buoy

9:50pm - Thu 10th Jul 2014 All times are CDT. -5 hours from GMT.

  • Sig Wave height 3.0ft
  • Swell Direction
  • Peak Period 9s
  • Average Period 5s
  • Wind
    11mph, 13mph gusts
  • Air Temp 84°f
  • Sea Pressure 1016.3mb
  •  Yucatan Basin - 120 Nm Ese Of Cozumel, Mx
  •  Yucatan Basin - 120 Nm Ese Of Cozumel, Mx

More Historic Weather Station data

Upgrade to MSW Pro to gain access to the past 30 days of data for over 8000 Wavebouys and Weather Stations around the globe.

Join Pro

Comparision Forecast

View Surf forecast
   
Thu 07/10 9:50pm 3ft 9s 5s 11 13 mph 1016.3mb - 84f
8:50pm 3ft 8s 5s 11 13 mph 1015.7mb - 84f
7:50pm 3ft 9s 5s 9 11 mph 1015.1mb - 84f
6:50pm 3ft 9s 5s 9 11 mph 1014.8mb - 84f
5:50pm 3ft 9s 5s 9 11 mph 1014.4mb - 84f
4:50pm 3.5ft 8s 6s 9 11 mph 1014.6mb - 84f
3:50pm 3ft 9s 5s 11
mph
1014.9mb - 84f
2:50pm 3.5ft 9s 5s 11 13 mph 1015.2mb - 83f
1:50pm 3.5ft 9s 5s 11 13 mph 1015.8mb - 83f
12:50pm 3.5ft 9s 5s 11 13 mph 1016.3mb - 84f
11:50am 3.5ft 6s 5s 11 13 mph 1016.4mb - 83f
10:50am 3.5ft 9s 5s 13 16 mph 1016.3mb - 83f
9:50am 3.5ft 9s 5s 18 20 mph 1016.1mb - 84f
8:50am 3.5ft 9s 5s 16 18 mph 1016mb - 84f
7:50am 3.5ft 9s 5s 16 18 mph 1015.7mb - 84f
6:50am 4ft 9s 5s 13
mph
1015.6mb - 84f
5:50am 3.5ft 8s 5s 13 16 mph 1015.1mb - 84f
4:50am 3.5ft 8s 5s 13 16 mph 1014.8mb - 84f
3:50am 3.5ft 8s 5s 13 16 mph 1014.7mb - 83f
2:50am 3.5ft 8s 5s 13 16 mph 1014.8mb 84f 83f
1:50am 3.5ft 9s 5s 16 18 mph 1015.2mb 85f 83f
12:50am 4ft 10s 5s 13 18 mph 1016mb 85f 84f
Wed 07/09 11:50pm 4ft 10s 5s 16 18 mph 1016.6mb 85f 84f
10:50pm 4ft 9s 5s 16 20 mph 1016.9mb 85f 84f
9:50pm 3.5ft 9s 5s 16
mph
1016.8mb 85f 84f
8:50pm 3.5ft 9s 5s 13 16 mph 1016.6mb 85f 84f
7:50pm 4ft 8s 6s 16 18 mph 1016.2mb 85f 85f
6:50pm 3.5ft 10s 6s 13 18 mph 1015.9mb 85f 85f
5:50pm 3.5ft 10s 6s 13 16 mph 1015.4mb 85f 85f
4:50pm 4.5ft 10s 6s 11 13 mph 1015.7mb 85f 85f
3:50pm 3.5ft 7s 5s 11
mph
1016.2mb 85f 85f
2:50pm 3.5ft 8s 6s 9 11 mph 1016.4mb 85f 84f
1:50pm 4.5ft 8s 6s 9 11 mph 1017.1mb 85f 84f
12:50pm 4.5ft 9s 6s 11 13 mph 1017.9mb 85f 84f
11:50am 4ft 8s 6s 11 13 mph 1018.6mb 85f 84f
10:50am 3.5ft 9s 5s 9 11 mph 1018.8mb 85f 84f
9:50am 4ft 8s 5s 9 11 mph 1018.7mb 85f 84f
8:50am 3.5ft 8s 5s 9 13 mph 1018.3mb 85f 84f
7:50am 3.5ft 8s 5s 9 11 mph 1017.8mb 85f 84f
6:50am 3.5ft 8s 5s 11 13 mph 1017.1mb 85f 84f
5:50am 3.5ft 8s 5s 13 18 mph 1016.4mb 85f 83f
4:50am 3ft 8s 5s 13 16 mph 1016.3mb 85f 83f
3:50am 3ft 8s 5s 11
mph
1016.4mb 85f 83f
2:50am 2.5ft 5s 5s 11 13 mph 1016.6mb 85f 83f
1:50am 2.5ft 5s 5s 11 13 mph 1017mb - 83f
12:50am 2.5ft 6s 4s 13 16 mph 1017.7mb - 83f
Tue 07/08 11:50pm 2.5ft 5s 4s 13 16 mph 1018.2mb - 83f
10:50pm 2.5ft 5s 5s 16 18 mph 1018.3mb - 84f
9:50pm 2.5ft 8s 5s 11 13 mph 1018.3mb - 84f
8:50pm 2.5ft 5s 4s 13
mph
1017.8mb - 84f
7:50pm 2.5ft 7s 4s 16
mph
1017.3mb - 84f
6:50pm 2.5ft 8s 5s 13 18 mph 1016.5mb - 85f
5:50pm 2.5ft 8s 4s 13 18 mph 1016.4mb - 85f
4:50pm 2.5ft 8s 5s 16 18 mph 1016.3mb - 85f
3:50pm 2.5ft 7s 4s 13 16 mph 1016.6mb - 85f
2:50pm 2ft 8s 4s 13 16 mph 1017.4mb - 85f
1:50pm 2ft 8s 4s 13 16 mph 1017.8mb - 84f
12:50pm 2ft 8s 4s 13 16 mph 1018.1mb - 84f
11:50am 2ft 7s 4s 13 16 mph 1018.3mb - 84f
10:50am 2ft 8s 4s 13 16 mph 1018.2mb - 84f
9:50am 2ft 8s 5s 13 16 mph 1018.2mb - 84f
8:50am 2ft 8s 4s 16 18 mph 1017.6mb - 84f
7:50am 2.5ft 8s 4s 11 13 mph 1017.1mb - 83f
6:50am 2.5ft 8s 4s 11 13 mph 1016.5mb - 83f
5:50am 2ft 8s 5s 13 16 mph 1015.7mb - 83f
4:50am 2ft 8s 5s 13 16 mph 1015.2mb - 83f
3:50am 2ft 8s 5s 11 13 mph 1015.3mb - 83f
2:50am 2ft 8s 5s 13 16 mph 1015.6mb - 83f
1:50am 2ft 8s 5s 13 16 mph 1016mb - 83f
12:50am 2ft 8s 5s 13 16 mph 1017mb - 84f
Mon 07/07 11:50pm 2ft 8s 5s 11 13 mph 1017.6mb - 84f
10:50pm 1.6ft 8s 5s 13 16 mph 1017.8mb - 84f
9:50pm 1.6ft 8s 5s 7 9 mph 1017.7mb - 83f
8:50pm 2ft 8s 5s 9 11 mph 1017.2mb - 83f
7:50pm 1.6ft 9s 5s 7 9 mph 1016.7mb - 83f
6:50pm 2ft 9s 5s 7 9 mph 1016.2mb - 84f
5:50pm 1.6ft 9s 5s 9 11 mph 1016mb - 84f
4:50pm 2ft 9s 5s 9 11 mph 1015.9mb - 84f
3:50pm 2ft 10s 5s 11
mph
1015.8mb - 84f
2:50pm 2ft 9s 5s 7 9 mph 1016mb - 84f
1:50pm 2ft 9s 5s 7 9 mph 1016.5mb - 84f
12:50pm 2ft 9s 5s 9
mph
1016.5mb - 84f
11:50am 2ft 9s 5s 9 11 mph 1016.7mb - 83f
10:50am 2ft 9s 5s 9 11 mph 1016.7mb - 84f
9:50am 2.5ft 9s 5s 9 11 mph 1016.9mb - 83f
8:50am 2.5ft 8s 5s 11
mph
1016.7mb - 83f
7:50am 2.5ft 8s 5s 11
mph
1016.3mb - 83f
6:50am 2.5ft 9s 5s 11 13 mph 1015.8mb - 83f
5:50am 2.5ft 9s 5s 11
mph
1015.2mb - 83f
4:50am 2.5ft 9s 5s 9 11 mph 1014.9mb - 83f